Time,TemperatureF,DewpointF,PressureIn,WindDirection,WindDirectionDegrees,WindSpeedMPH,WindSpeedGustMPH,Humidity,HourlyPrecipIn,Conditions,Clouds,dailyrainin,SoftwareType,DateUTC
2013-01-31 06:02:00,47.0,41.0,30.30,WNW,294,1.0,1.0,78,0.00,,,0.00,,2013-01-31 14:02:00,
2013-01-31 06:11:00,47.0,41.0,30.30,WNW,294,1.0,1.0,78,0.00,,,0.00,,2013-01-31 14:11:00,
2013-01-31 06:21:00,47.0,41.0,30.30,WNW,294,1.0,2.0,78,0.00,,,0.00,,2013-01-31 14:21:00,
2013-01-31 06:31:00,48.0,42.0,30.30,WNW,294,1.0,2.0,79,0.00,,,0.00,,2013-01-31 14:31:00,
2013-01-31 06:42:00,48.0,42.0,30.30,WNW,294,1.0,2.0,79,0.00,,,0.00,,2013-01-31 14:42:00,
2013-01-31 06:52:00,48.0,41.0,30.30,WNW,294,1.0,2.0,77,0.00,,,0.00,,2013-01-31 14:52:00,
2013-01-31 07:02:00,48.0,41.0,30.30,WNW,294,1.0,1.0,77,0.00,,,0.00,,2013-01-31 15:02:00,
2013-01-31 07:11:00,48.0,41.0,30.30,WNW,294,1.0,1.0,77,0.00,,,0.00,,2013-01-31 15:11:00,
2013-01-31 07:22:00,48.0,41.0,30.30,WNW,294,1.0,2.0,77,0.00,,,0.00,,2013-01-31 15:22:00,
2013-01-31 07:32:00,48.0,41.0,30.31,WNW,294,1.0,2.0,77,0.00,,,0.00,,2013-01-31 15:32:00,
2013-01-31 07:42:00,48.0,41.0,30.31,WNW,294,1.0,2.0,77,0.00,,,0.00,,2013-01-31 15:42:00,
2013-01-31 07:51:00,48.0,41.0,30.31,WNW,294,1.0,2.0,77,0.00,,,0.00,,2013-01-31 15:51:00,
2013-01-31 08:03:00,48.0,41.0,30.31,WNW,294,0.0,1.0,77,0.00,,,0.00,,2013-01-31 16:03:00,
2013-01-31 08:12:00,48.0,41.0,30.31,WNW,294,0.0,1.0,77,0.00,,,0.00,,2013-01-31 16:12:00,
2013-01-31 08:21:00,49.0,42.0,30.32,WNW,294,0.0,1.0,76,0.00,,,0.00,,2013-01-31 16:21:00,
2013-01-31 08:32:00,49.0,41.0,30.32,WNW,294,0.0,1.0,73,0.00,,,0.00,,2013-01-31 16:32:00,
2013-01-31 08:41:00,49.0,41.0,30.32,WNW,294,0.0,1.0,73,0.00,,,0.00,,2013-01-31 16:41:00,
2013-01-31 08:51:00,51.0,43.0,30.32,WNW,298,1.0,1.0,74,0.00,,,0.00,,2013-01-31 16:51:00,
2013-01-31 09:02:00,53.0,44.0,30.32,SSW,203,0.0,2.0,72,0.00,,,0.00,,2013-01-31 17:02:00,
2013-01-31 09:31:00,56.0,46.0,30.33,SW,234,1.0,2.0,69,0.00,,,0.00,,2013-01-31 17:31:00,
2013-01-31 09:43:00,56.0,46.0,30.33,SW,234,1.0,2.0,69,0.00,,,0.00,,2013-01-31 17:43:00,
2013-01-31 09:53:00,57.0,46.0,30.33,SSW,212,1.0,3.0,67,0.00,,,0.00,,2013-01-31 17:53:00,
2013-01-31 10:02:00,57.0,45.0,30.33,SW,234,1.0,3.0,65,0.00,,,0.00,,2013-01-31 18:02:00,
2013-01-31 10:12:00,58.0,44.0,30.32,SSE,151,1.0,3.0,60,0.00,,,0.00,,2013-01-31 18:12:00,
2013-01-31 10:21:00,58.0,44.0,30.32,SSE,151,1.0,3.0,60,0.00,,,0.00,,2013-01-31 18:21:00,
2013-01-31 10:32:00,60.0,41.0,30.32,South,173,2.0,4.0,49,0.00,,,0.00,,2013-01-31 18:32:00,
2013-01-31 10:42:00,60.0,41.0,30.32,South,173,2.0,4.0,49,0.00,,,0.00,,2013-01-31 18:42:00,
2013-01-31 10:52:00,60.0,40.0,30.32,SE,129,1.0,3.0,48,0.00,,,0.00,,2013-01-31 18:52:00,
2013-01-31 11:02:00,61.0,39.0,30.32,SSE,153,1.0,3.0,44,0.00,,,0.00,,2013-01-31 19:02:00,
2013-01-31 11:11:00,61.0,39.0,30.32,SSE,153,1.0,3.0,44,0.00,,,0.00,,2013-01-31 19:11:00,
2013-01-31 11:21:00,61.0,40.0,30.31,ESE,122,2.0,3.0,45,0.00,,,0.00,,2013-01-31 19:21:00,
2013-01-31 11:32:00,62.0,40.0,30.31,SE,131,1.0,3.0,44,0.00,,,0.00,,2013-01-31 19:32:00,
2013-01-31 11:42:00,62.0,40.0,30.31,SE,131,1.0,3.0,44,0.00,,,0.00,,2013-01-31 19:42:00,
2013-01-31 11:51:00,62.0,40.0,30.31,SE,131,1.0,3.0,44,0.00,,,0.00,,2013-01-31 19:51:00,
2013-01-31 12:02:00,64.0,40.0,30.30,ESE,122,1.0,4.0,42,0.00,,,0.00,,2013-01-31 20:02:00,
2013-01-31 12:11:00,64.0,40.0,30.30,ESE,122,1.0,4.0,42,0.00,,,0.00,,2013-01-31 20:11:00,
2013-01-31 12:21:00,66.0,43.0,30.29,SW,217,1.0,3.0,43,0.00,,,0.00,,2013-01-31 20:21:00,
2013-01-31 12:31:00,65.0,47.0,30.29,SW,217,3.0,6.0,52,0.00,,,0.00,,2013-01-31 20:31:00,
2013-01-31 12:41:00,65.0,47.0,30.29,SW,217,3.0,6.0,52,0.00,,,0.00,,2013-01-31 20:41:00,
2013-01-31 12:52:00,65.0,47.0,30.29,WNW,294,1.0,3.0,52,0.00,,,0.00,,2013-01-31 20:52:00,
2013-01-31 13:02:00,65.0,48.0,30.28,WNW,286,2.0,5.0,54,0.00,,,0.00,,2013-01-31 21:02:00,
2013-01-31 13:11:00,65.0,48.0,30.28,WNW,286,2.0,5.0,54,0.00,,,0.00,,2013-01-31 21:11:00,
2013-01-31 13:21:00,65.0,48.0,30.27,WNW,292,2.0,4.0,54,0.00,,,0.00,,2013-01-31 21:21:00,
2013-01-31 13:31:00,65.0,47.0,30.27,WNW,288,2.0,7.0,53,0.00,,,0.00,,2013-01-31 21:31:00,
2013-01-31 13:42:00,65.0,47.0,30.27,WNW,288,2.0,7.0,53,0.00,,,0.00,,2013-01-31 21:42:00,
2013-01-31 13:52:00,66.0,48.0,30.26,WNW,293,2.0,4.0,52,0.00,,,0.00,,2013-01-31 21:52:00,
2013-01-31 14:02:00,66.0,48.0,30.26,WNW,293,2.0,4.0,52,0.00,,,0.00,,2013-01-31 22:02:00,
2013-01-31 14:11:00,66.0,48.0,30.26,WNW,293,2.0,4.0,52,0.00,,,0.00,,2013-01-31 22:11:00,
2013-01-31 14:22:00,66.0,47.0,30.25,WNW,298,1.0,5.0,50,0.00,,,0.00,,2013-01-31 22:22:00,
2013-01-31 14:32:00,66.0,46.0,30.25,WSW,248,2.0,5.0,49,0.00,,,0.00,,2013-01-31 22:32:00,
2013-01-31 14:42:00,66.0,46.0,30.25,WSW,248,2.0,5.0,49,0.00,,,0.00,,2013-01-31 22:42:00,
2013-01-31 14:51:00,67.0,46.0,30.25,West,263,1.0,4.0,46,0.00,,,0.00,,2013-01-31 22:51:00,
2013-01-31 15:02:00,66.0,44.0,30.25,West,261,2.0,4.0,45,0.00,,,0.00,,2013-01-31 23:02:00,
2013-01-31 15:12:00,66.0,44.0,30.25,West,261,2.0,4.0,45,0.00,,,0.00,,2013-01-31 23:12:00,
2013-01-31 15:21:00,66.0,43.0,30.24,West,265,2.0,5.0,44,0.00,,,0.00,,2013-01-31 23:21:00,
2013-01-31 15:31:00,67.0,44.0,30.24,WSW,252,1.0,3.0,43,0.00,,,0.00,,2013-01-31 23:31:00,
2013-01-31 15:41:00,67.0,44.0,30.24,WSW,252,1.0,3.0,43,0.00,,,0.00,,2013-01-31 23:41:00,
2013-01-31 15:52:00,67.0,43.0,30.24,WSW,257,1.0,4.0,41,0.00,,,0.00,,2013-01-31 23:52:00,
2013-01-31 16:01:00,67.0,43.0,30.24,WSW,257,1.0,4.0,41,0.00,,,0.00,,2013-02-01 00:01:00,
2013-01-31 16:11:00,67.0,43.0,30.24,WSW,257,1.0,4.0,41,0.00,,,0.00,,2013-02-01 00:11:00,
2013-01-31 16:21:00,64.0,42.0,30.24,WSW,238,2.0,3.0,45,0.00,,,0.00,,2013-02-01 00:21:00,
2013-01-31 16:31:00,63.0,43.0,30.23,WNW,286,1.0,4.0,48,0.00,,,0.00,,2013-02-01 00:31:00,
2013-01-31 16:42:00,63.0,43.0,30.23,WNW,286,1.0,4.0,48,0.00,,,0.00,,2013-02-01 00:42:00,
2013-01-31 16:51:00,63.0,45.0,30.24,WNW,296,2.0,2.0,52,0.00,,,0.00,,2013-02-01 00:51:00,
2013-01-31 17:01:00,62.0,45.0,30.23,WNW,293,1.0,2.0,54,0.00,,,0.00,,2013-02-01 01:01:00,
2013-01-31 17:11:00,61.0,45.0,30.23,WNW,296,1.0,2.0,56,0.00,,,0.00,,2013-02-01 01:11:00,
2013-01-31 17:21:00,61.0,45.0,30.23,WNW,296,1.0,2.0,56,0.00,,,0.00,,2013-02-01 01:21:00,
2013-01-31 17:31:00,60.0,46.0,30.23,WNW,296,1.0,2.0,59,0.00,,,0.00,,2013-02-01 01:31:00,
2013-01-31 17:41:00,60.0,46.0,30.23,WNW,296,1.0,2.0,59,0.00,,,0.00,,2013-02-01 01:41:00,
2013-01-31 17:51:00,60.0,46.0,30.23,WNW,296,1.0,2.0,59,0.00,,,0.00,,2013-02-01 01:51:00,
2013-01-31 18:01:00,56.0,45.0,30.23,WNW,296,1.0,1.0,67,0.00,,,0.00,,2013-02-01 02:01:00,
2013-01-31 18:11:00,56.0,45.0,30.23,WNW,296,1.0,1.0,67,0.00,,,0.00,,2013-02-01 02:11:00,
2013-01-31 18:21:00,55.0,45.0,30.24,WNW,296,1.0,1.0,69,0.00,,,0.00,,2013-02-01 02:21:00,
2013-01-31 18:31:00,55.0,46.0,30.24,WNW,296,1.0,2.0,71,0.00,,,0.00,,2013-02-01 02:31:00,
2013-01-31 18:41:00,55.0,46.0,30.24,WNW,296,1.0,2.0,71,0.00,,,0.00,,2013-02-01 02:41:00,
2013-01-31 18:52:00,54.0,46.0,30.24,WNW,296,0.0,1.0,73,0.00,,,0.00,,2013-02-01 02:52:00,
2013-01-31 19:01:00,53.0,45.0,30.23,WNW,296,1.0,1.0,74,0.00,,,0.00,,2013-02-01 03:01:00,
2013-01-31 19:11:00,53.0,45.0,30.23,WNW,296,1.0,1.0,74,0.00,,,0.00,,2013-02-01 03:11:00,
2013-01-31 19:21:00,53.0,45.0,30.23,WNW,296,1.0,1.0,74,0.00,,,0.00,,2013-02-01 03:21:00,
2013-01-31 19:32:00,53.0,45.0,30.24,WNW,296,0.0,1.0,74,0.00,,,0.00,,2013-02-01 03:32:00,
2013-01-31 19:41:00,53.0,45.0,30.24,WNW,296,0.0,1.0,74,0.00,,,0.00,,2013-02-01 03:41:00,
2013-01-31 19:52:00,53.0,45.0,30.24,WNW,296,1.0,1.0,73,0.00,,,0.00,,2013-02-01 03:52:00,
2013-01-31 20:02:00,53.0,45.0,30.24,WNW,296,1.0,1.0,73,0.00,,,0.00,,2013-02-01 04:02:00,
2013-01-31 20:11:00,53.0,45.0,30.24,WNW,296,1.0,1.0,73,0.00,,,0.00,,2013-02-01 04:11:00,
2013-01-31 20:21:00,53.0,45.0,30.24,WNW,296,1.0,2.0,74,0.00,,,0.00,,2013-02-01 04:21:00,
2013-01-31 20:31:00,52.0,45.0,30.24,WNW,296,1.0,2.0,78,0.00,,,0.00,,2013-02-01 04:31:00,
2013-01-31 20:41:00,52.0,45.0,30.24,WNW,296,1.0,2.0,78,0.00,,,0.00,,2013-02-01 04:41:00,
2013-01-31 20:51:00,52.0,45.0,30.24,WNW,296,1.0,1.0,78,0.00,,,0.00,,2013-02-01 04:51:00,
2013-01-31 21:03:00,52.0,46.0,30.23,NW,325,1.0,2.0,79,0.00,,,0.00,,2013-02-01 05:03:00,
2013-01-31 21:11:00,52.0,46.0,30.23,NW,325,1.0,2.0,79,0.00,,,0.00,,2013-02-01 05:11:00,
2013-01-31 21:22:00,52.0,46.0,30.24,NW,325,1.0,1.0,79,0.00,,,0.00,,2013-02-01 05:22:00,
2013-01-31 21:31:00,51.0,45.0,30.24,NW,325,1.0,2.0,80,0.00,,,0.00,,2013-02-01 05:31:00,
2013-01-31 21:41:00,51.0,45.0,30.24,NW,325,1.0,2.0,80,0.00,,,0.00,,2013-02-01 05:41:00,
2013-01-31 21:52:00,51.0,45.0,30.23,NNW,332,1.0,2.0,81,0.00,,,0.00,,2013-02-01 05:52:00,
2013-01-31 22:02:00,51.0,45.0,30.23,NNW,332,1.0,2.0,81,0.00,,,0.00,,2013-02-01 06:02:00,
2013-01-31 22:11:00,51.0,45.0,30.23,NNW,332,1.0,2.0,81,0.00,,,0.00,,2013-02-01 06:11:00,
2013-01-31 22:21:00,51.0,45.0,30.23,ENE,74,1.0,3.0,81,0.00,,,0.00,,2013-02-01 06:21:00,
2013-01-31 22:32:00,51.0,45.0,30.23,ENE,71,1.0,2.0,81,0.00,,,0.00,,2013-02-01 06:32:00,
2013-01-31 22:41:00,51.0,45.0,30.23,ENE,71,1.0,2.0,81,0.00,,,0.00,,2013-02-01 06:41:00,
2013-01-31 22:52:00,51.0,45.0,30.23,ENE,71,1.0,2.0,81,0.00,,,0.00,,2013-02-01 06:52:00,
2013-01-31 23:01:00,51.0,45.0,30.23,ENE,71,0.0,1.0,81,0.00,,,0.00,,2013-02-01 07:01:00,
2013-01-31 23:11:00,51.0,45.0,30.23,ENE,71,0.0,1.0,81,0.00,,,0.00,,2013-02-01 07:11:00,
2013-01-31 23:21:00,51.0,45.0,30.23,ENE,71,0.0,1.0,81,0.00,,,0.00,,2013-02-01 07:21:00,
2013-01-31 23:32:00,52.0,46.0,30.23,ENE,71,1.0,2.0,81,0.00,,,0.00,,2013-02-01 07:32:00,
2013-01-31 23:41:00,52.0,46.0,30.23,ENE,71,1.0,2.0,81,0.00,,,0.00,,2013-02-01 07:41:00,
2013-01-31 23:52:00,52.0,46.0,30.23,ENE,71,1.0,2.0,80,0.00,,,0.00,,2013-02-01 07:52:00,